Time;durP1;ratioP1;P1;durP2;ratioP2;P2;SDS_P1;SDS_P2;PMS_P1;PMS_P2;Temp;Humidity;BMP_temperature;BMP_pressure;BME280_temperature;BME280_humidity;BME280_pressure;Samples;Min_cycle;Max_cycle;Signal;HPM_P1;HPM_P2
2022/10/27 00:00:59;;;;;;;;;;;;;;;20.91;62.51;101787.78;5003563;28;2953;-52
2022/10/27 00:03:26;;;;;;;;;;;;;;;20.90;62.41;101788.41;5010540;28;2915;-56
2022/10/27 00:06:01;;;;;;;;;;;;;;;20.90;62.49;101794.91;5008627;28;3298;-56
2022/10/27 00:08:27;;;;;;;;;;;;;;;20.89;62.47;101793.44;5011596;28;2946;-55
2022/10/27 00:10:54;;;;;;;;;;;;;;;20.90;62.68;101802.81;5009329;28;3025;-53
2022/10/27 00:13:20;;;;;;;;;;;;;;;20.92;62.64;101800.06;5014012;28;3058;-56
2022/10/27 00:15:54;;;;;;;;;;;;;;;20.90;62.45;101803.56;5007562;28;3432;-55
2022/10/27 00:18:20;;;;;;;;;;;;;;;20.92;62.43;101808.69;5013006;28;2965;-57
2022/10/27 00:20:55;;;;;;;;;;;;;;;20.89;62.57;101801.28;5011068;28;2733;-55
2022/10/27 00:23:22;;;;;;;;;;;;;;;20.90;62.38;101815.06;5010863;28;2893;-54
2022/10/27 00:25:54;;;;;;;;;;;;;;;20.89;62.32;101818.56;5011861;28;2927;-53
2022/10/27 00:28:21;;;;;;;;;;;;;;;20.89;62.37;101819.34;5008508;28;2919;-56
2022/10/27 00:30:47;;;;;;;;;;;;;;;20.92;62.02;101823.81;5009333;28;2883;-53
2022/10/27 00:33:13;;;;;;;;;;;;;;;20.95;62.10;101821.81;5008759;28;3040;-53
2022/10/27 00:35:40;;;;;;;;;;;;;;;20.96;62.42;101826.22;5011239;28;2981;-54
2022/10/27 00:38:06;;;;;;;;;;;;;;;20.96;62.15;101819.69;5013966;28;2990;-53
2022/10/27 00:40:36;;;;;;;;;;;;;;;20.94;62.17;101828.97;5010428;28;2927;-55
2022/10/27 00:43:02;;;;;;;;;;;;;;;20.92;62.30;101826.72;5009245;28;3030;-56
2022/10/27 00:45:28;;;;;;;;;;;;;;;20.92;62.30;101835.34;5007776;28;3051;-51
2022/10/27 00:47:55;;;;;;;;;;;;;;;20.92;62.17;101832.47;5011614;28;3527;-56
2022/10/27 00:50:22;;;;;;;;;;;;;;;20.91;62.35;101836.75;5012752;28;2940;-55
2022/10/27 00:52:49;;;;;;;;;;;;;;;20.90;62.47;101843.84;5014342;28;2832;-53
2022/10/27 00:55:32;;;;;;;;;;;;;;;20.89;62.84;101838.72;5018452;28;3095;-54
2022/10/27 00:58:36;;;;;;;;;;;;;;;20.88;62.71;101849.50;5024476;28;3077;-56
2022/10/27 01:01:27;;;;;;;;;;;;;;;20.88;62.57;101837.97;5003815;28;3002;-51
2022/10/27 01:03:53;;;;;;;;;;;;;;;20.88;62.67;101852.38;5009609;28;2875;-51
2022/10/27 01:06:20;;;;;;;;;;;;;;;20.88;62.64;101848.75;5012934;28;3291;-54
2022/10/27 01:08:46;;;;;;;;;;;;;;;20.87;62.83;101848.00;5026663;28;2881;-53
2022/10/27 01:11:12;;;;;;;;;;;;;;;20.89;62.55;101856.00;5010352;28;3244;-53
2022/10/27 01:13:39;;;;;;;;;;;;;;;20.84;62.83;101855.00;5008060;28;3222;-55
2022/10/27 01:16:24;;;;;;;;;;;;;;;20.86;62.85;101860.88;5012298;28;3152;-53
2022/10/27 01:19:12;;;;;;;;;;;;;;;20.85;62.68;101856.53;5007121;28;2523;-51
2022/10/27 01:21:47;;;;;;;;;;;;;;;20.84;62.66;101857.88;5010236;28;2958;-56
2022/10/27 01:24:33;;;;;;;;;;;;;;;20.85;62.63;101867.28;5010946;28;3045;-55
2022/10/27 01:27:01;;;;;;;;;;;;;;;20.84;62.55;101868.66;5027250;28;2855;-52
2022/10/27 01:29:48;;;;;;;;;;;;;;;20.84;62.79;101869.41;5007934;28;2997;-53
2022/10/27 01:32:30;;;;;;;;;;;;;;;20.81;62.64;101864.91;5018786;28;2943;-54
2022/10/27 01:34:59;;;;;;;;;;;;;;;20.83;62.79;101872.91;5008953;28;2970;-55
2022/10/27 01:37:35;;;;;;;;;;;;;;;20.81;62.86;101867.78;5024300;28;2916;-55
2022/10/27 01:40:03;;;;;;;;;;;;;;;20.83;62.70;101859.28;5024968;28;3301;-54
2022/10/27 01:42:48;;;;;;;;;;;;;;;20.82;62.65;101862.78;5010405;28;2961;-54
2022/10/27 01:45:18;;;;;;;;;;;;;;;20.81;62.75;101861.28;5008714;28;3088;-54
2022/10/27 01:47:45;;;;;;;;;;;;;;;20.82;62.72;101869.28;5024394;28;3007;-54
2022/10/27 01:50:11;;;;;;;;;;;;;;;20.80;62.79;101854.78;5011062;28;2970;-51
2022/10/27 01:52:41;;;;;;;;;;;;;;;20.80;62.80;101862.63;5009544;28;3094;-53
2022/10/27 01:55:14;;;;;;;;;;;;;;;20.80;62.76;101863.41;5009980;28;2945;-53
2022/10/27 01:57:58;;;;;;;;;;;;;;;20.79;62.82;101864.78;5012813;28;2926;-51
2022/10/27 02:00:24;;;;;;;;;;;;;;;20.77;62.65;101867.53;5015356;28;3198;-52
2022/10/27 02:02:51;;;;;;;;;;;;;;;20.75;62.71;101867.41;5010567;28;2909;-55
2022/10/27 02:05:25;;;;;;;;;;;;;;;20.78;62.60;101868.31;5023659;28;3055;-51
2022/10/27 02:07:53;;;;;;;;;;;;;;;20.77;62.75;101867.53;5023934;28;2902;-55
2022/10/27 02:10:30;;;;;;;;;;;;;;;20.79;62.70;101870.53;5013770;28;2894;-55
2022/10/27 02:12:56;;;;;;;;;;;;;;;20.77;62.69;101879.03;5025038;28;2921;-53
2022/10/27 02:15:25;;;;;;;;;;;;;;;20.78;62.68;101874.06;5022985;28;4158;-53
2022/10/27 02:17:51;;;;;;;;;;;;;;;20.76;62.59;101876.81;5014720;28;2761;-53
2022/10/27 02:20:19;;;;;;;;;;;;;;;20.77;62.49;101889.81;5020671;28;2946;-55
2022/10/27 02:22:46;;;;;;;;;;;;;;;20.77;62.53;101889.81;5010519;28;3009;-53
2022/10/27 02:25:17;;;;;;;;;;;;;;;20.76;62.56;101889.06;5011181;28;2919;-54
2022/10/27 02:27:44;;;;;;;;;;;;;;;20.74;62.54;101897.56;5012214;28;3057;-54
2022/10/27 02:30:11;;;;;;;;;;;;;;;20.75;62.58;101893.31;5035847;28;2852;-51
2022/10/27 02:32:37;;;;;;;;;;;;;;;20.76;62.54;101894.09;5005387;28;3521;-54
2022/10/27 02:35:04;;;;;;;;;;;;;;;20.76;62.52;101894.09;5014686;28;3180;-53
2022/10/27 02:37:33;;;;;;;;;;;;;;;20.71;62.63;101888.06;5022927;28;3002;-53
2022/10/27 02:39:59;;;;;;;;;;;;;;;20.75;62.35;101892.56;5012027;28;2998;-51
2022/10/27 02:42:25;;;;;;;;;;;;;;;20.76;62.33;101894.09;5011079;28;2914;-54
2022/10/27 02:44:52;;;;;;;;;;;;;;;20.76;62.38;101891.94;5007042;28;2907;-55
2022/10/27 02:47:18;;;;;;;;;;;;;;;20.78;62.30;101892.06;4999521;28;3006;-55
2022/10/27 02:49:44;;;;;;;;;;;;;;;20.78;62.25;101886.31;5015978;28;2806;-55
2022/10/27 02:52:11;;;;;;;;;;;;;;;20.81;61.93;101884.31;5008666;28;3106;-54
2022/10/27 02:54:37;;;;;;;;;;;;;;;20.83;61.98;101899.56;5012272;28;2887;-52
2022/10/27 02:57:04;;;;;;;;;;;;;;;20.85;62.40;101898.97;5009294;28;2911;-55
2022/10/27 02:59:30;;;;;;;;;;;;;;;20.86;62.77;101898.31;5011297;28;2879;-53
2022/10/27 03:01:56;;;;;;;;;;;;;;;20.88;62.74;101895.56;5005912;28;2579;-54
2022/10/27 03:04:23;;;;;;;;;;;;;;;20.89;62.81;101897.06;5011106;28;2978;-56
2022/10/27 03:06:49;;;;;;;;;;;;;;;20.89;62.81;101902.84;5012785;28;3248;-54
2022/10/27 03:09:15;;;;;;;;;;;;;;;20.91;62.74;101910.81;5009162;28;2912;-53
2022/10/27 03:11:42;;;;;;;;;;;;;;;20.91;62.97;101899.31;5011102;28;2953;-52
2022/10/27 03:14:11;;;;;;;;;;;;;;;20.91;62.79;101905.84;5009050;28;2899;-50
2022/10/27 03:16:38;;;;;;;;;;;;;;;20.91;63.04;101911.59;5012367;28;2978;-53
2022/10/27 03:19:04;;;;;;;;;;;;;;;20.91;63.00;101908.72;5009338;28;2796;-54
2022/10/27 03:21:30;;;;;;;;;;;;;;;20.93;62.95;101919.59;5009613;28;3099;-55
2022/10/27 03:23:57;;;;;;;;;;;;;;;20.93;62.90;101923.22;5007623;28;2950;-55
2022/10/27 03:26:23;;;;;;;;;;;;;;;20.94;62.84;101921.09;5011016;28;2611;-53
2022/10/27 03:28:49;;;;;;;;;;;;;;;20.95;62.76;101921.84;5007600;28;2975;-54
2022/10/27 03:31:16;;;;;;;;;;;;;;;20.97;62.85;101930.63;5012324;28;2762;-54
2022/10/27 03:33:42;;;;;;;;;;;;;;;20.98;62.44;101927.13;5011709;28;3221;-52
2022/10/27 03:36:10;;;;;;;;;;;;;;;20.98;62.98;101932.09;5013099;28;3009;-55
2022/10/27 03:38:36;;;;;;;;;;;;;;;20.98;62.90;101932.09;5012466;28;3093;-53
2022/10/27 03:41:03;;;;;;;;;;;;;;;20.98;62.95;101932.09;5013790;28;2990;-55
2022/10/27 03:43:29;;;;;;;;;;;;;;;20.99;62.90;101930.75;5011927;28;3014;-55
2022/10/27 03:45:55;;;;;;;;;;;;;;;20.99;62.78;101927.88;5013084;28;2882;-53
2022/10/27 03:48:26;;;;;;;;;;;;;;;20.97;63.15;101927.75;5011274;28;2871;-52
2022/10/27 03:50:52;;;;;;;;;;;;;;;20.98;63.19;101949.38;5013350;28;3042;-52
2022/10/27 03:53:18;;;;;;;;;;;;;;;20.98;62.88;101944.41;5013753;28;2917;-52
2022/10/27 03:55:46;;;;;;;;;;;;;;;20.98;62.85;101946.50;5016133;28;2919;-51
2022/10/27 03:58:12;;;;;;;;;;;;;;;20.98;63.05;101947.28;5011767;28;3108;-54
2022/10/27 04:00:42;;;;;;;;;;;;;;;20.98;62.92;101943.63;5014719;28;2880;-54
2022/10/27 04:03:08;;;;;;;;;;;;;;;20.99;62.97;101948.75;5016800;28;2943;-56
2022/10/27 04:05:35;;;;;;;;;;;;;;;21.01;62.86;101951.03;5009562;28;3333;-55
2022/10/27 04:08:01;;;;;;;;;;;;;;;21.03;62.89;101951.16;5010432;28;3137;-52
2022/10/27 04:10:27;;;;;;;;;;;;;;;21.03;62.98;101965.56;5012164;28;3141;-51
2022/10/27 04:12:54;;;;;;;;;;;;;;;21.04;62.77;101969.91;5013822;28;2993;-52
2022/10/27 04:15:21;;;;;;;;;;;;;;;21.04;62.76;101982.19;5014144;28;2989;-54
2022/10/27 04:17:47;;;;;;;;;;;;;;;21.03;62.92;101980.69;5011483;28;3445;-54
2022/10/27 04:20:13;;;;;;;;;;;;;;;21.03;62.71;101974.19;5008194;28;3362;-56
2022/10/27 04:22:40;;;;;;;;;;;;;;;21.03;62.83;101980.69;5016337;28;2979;-53
2022/10/27 04:25:06;;;;;;;;;;;;;;;21.03;63.10;101988.59;5013038;28;3125;-54
2022/10/27 04:27:32;;;;;;;;;;;;;;;21.01;62.75;101982.69;5014607;28;2337;-54
2022/10/27 04:29:59;;;;;;;;;;;;;;;21.01;62.86;101992.09;5015115;28;2966;-53
2022/10/27 04:32:25;;;;;;;;;;;;;;;21.01;62.65;101994.22;5014901;28;2674;-54
2022/10/27 04:34:51;;;;;;;;;;;;;;;21.00;62.77;101993.44;5011236;28;3122;-51
2022/10/27 04:37:18;;;;;;;;;;;;;;;21.02;62.75;101989.94;5012030;28;3006;-51
2022/10/27 04:39:44;;;;;;;;;;;;;;;21.02;63.07;101989.94;5009622;28;2918;-55
2022/10/27 04:42:11;;;;;;;;;;;;;;;21.04;62.81;101987.19;5014022;28;3108;-55
2022/10/27 04:44:37;;;;;;;;;;;;;;;21.04;62.92;101999.47;5011321;28;2916;-53
2022/10/27 04:47:03;;;;;;;;;;;;;;;21.06;62.92;101990.22;5010627;28;2876;-53
2022/10/27 04:49:30;;;;;;;;;;;;;;;21.08;62.81;101996.09;5008368;28;2744;-54
2022/10/27 04:51:56;;;;;;;;;;;;;;;21.06;63.04;102001.72;5012560;28;2903;-53
2022/10/27 04:54:22;;;;;;;;;;;;;;;21.07;62.69;101998.22;5013865;28;2543;-54
2022/10/27 04:56:49;;;;;;;;;;;;;;;21.07;63.02;102008.97;5013653;28;2631;-55
2022/10/27 04:59:16;;;;;;;;;;;;;;;21.06;63.08;101998.84;5011532;28;2899;-55
2022/10/27 05:01:42;;;;;;;;;;;;;;;21.06;62.91;102001.72;5005578;28;2972;-53
2022/10/27 05:04:08;;;;;;;;;;;;;;;21.06;62.74;102001.72;5015387;28;2886;-53
2022/10/27 05:06:35;;;;;;;;;;;;;;;21.06;62.86;102014.00;5011221;28;3105;-54
2022/10/27 05:09:01;;;;;;;;;;;;;;;21.06;63.12;102019.00;5008381;28;3037;-55
2022/10/27 05:11:27;;;;;;;;;;;;;;;21.04;62.69;102024.66;5006960;28;3092;-57
2022/10/27 05:13:54;;;;;;;;;;;;;;;21.11;62.22;102020.75;5008336;28;3364;-58
2022/10/27 05:16:20;;;;;;;;;;;;;;;21.00;62.38;102016.50;5007850;28;3139;-63
2022/10/27 05:18:46;;;;;;;;;;;;;;;21.18;63.25;102021.88;5001938;28;4609;-64
2022/10/27 05:21:13;;;;;;;;;;;;;;;21.36;63.26;102022.25;5012467;28;3329;-64
2022/10/27 05:23:39;;;;;;;;;;;;;;;21.41;63.20;102024.78;5011949;28;2859;-64
2022/10/27 05:26:12;;;;;;;;;;;;;;;21.46;63.01;102025.75;5006518;28;4479;-62
2022/10/27 05:28:42;;;;;;;;;;;;;;;21.52;62.72;102034.78;5009708;28;4954;-61
2022/10/27 05:31:09;;;;;;;;;;;;;;;21.47;62.77;102035.94;5013277;28;2207;-60
2022/10/27 05:33:35;;;;;;;;;;;;;;;21.51;62.48;102033.28;5012114;28;3124;-60
2022/10/27 05:36:02;;;;;;;;;;;;;;;21.53;62.92;102042.03;5012818;28;4700;-56
2022/10/27 05:38:28;;;;;;;;;;;;;;;21.37;63.38;102036.00;5008385;28;2914;-63
2022/10/27 05:40:55;;;;;;;;;;;;;;;21.62;62.70;102044.03;5013324;28;4048;-63
2022/10/27 05:43:21;;;;;;;;;;;;;;;21.51;62.60;102047.72;5008505;28;3654;-64
2022/10/27 05:49:21;;;;;;;;;;;;;;;21.15;61.25;102043.31;4993885;28;2898;-63
2022/10/27 05:51:48;;;;;;;;;;;;;;;21.20;61.48;102042.94;5010926;28;3331;-63
2022/10/27 05:54:15;;;;;;;;;;;;;;;21.19;62.20;102043.53;5012647;28;3032;-63
2022/10/27 05:56:41;;;;;;;;;;;;;;;21.18;62.69;102037.03;5010683;28;3005;-63
2022/10/27 05:59:08;;;;;;;;;;;;;;;21.19;62.75;102043.53;5010746;28;3072;-63
2022/10/27 06:01:34;;;;;;;;;;;;;;;21.19;62.69;102043.53;5012426;28;3101;-63
2022/10/27 06:04:01;;;;;;;;;;;;;;;21.14;62.75;102045.41;5010874;28;2990;-63
2022/10/27 06:06:27;;;;;;;;;;;;;;;21.11;63.02;102044.53;5011555;28;2855;-63
2022/10/27 06:08:53;;;;;;;;;;;;;;;21.12;63.16;102040.31;5007843;28;3074;-63
2022/10/27 06:11:20;;;;;;;;;;;;;;;21.06;63.03;102037.03;5009012;28;3062;-63
2022/10/27 06:13:48;;;;;;;;;;;;;;;20.90;62.13;102041.78;5011320;28;3167;-64
2022/10/27 06:16:14;;;;;;;;;;;;;;;20.38;57.49;102045.63;5012185;28;3051;-64
2022/10/27 06:18:40;;;;;;;;;;;;;;;19.90;55.33;102043.91;5008433;28;2983;-64
2022/10/27 06:21:07;;;;;;;;;;;;;;;19.55;54.53;102050.91;5012489;28;2905;-63
2022/10/27 06:23:33;;;;;;;;;;;;;;;19.41;52.99;102056.44;5004756;28;3020;-64
2022/10/27 06:26:00;;;;;;;;;;;;;;;19.57;53.51;102058.94;5008022;28;4919;-61
2022/10/27 06:28:26;;;;;;;;;;;;;;;19.92;51.96;102056.31;5013420;28;3318;-64
2022/10/27 06:30:52;;;;;;;;;;;;;;;20.01;51.54;102051.84;5015694;28;4884;-61
2022/10/27 06:33:19;;;;;;;;;;;;;;;19.96;51.09;102053.69;5011904;28;3174;-59
2022/10/27 06:35:45;;;;;;;;;;;;;;;19.59;51.34;102056.19;5010753;28;3982;-63
2022/10/27 06:38:15;;;;;;;;;;;;;;;19.94;51.87;102070.06;5005290;28;3130;-60
2022/10/27 06:40:42;;;;;;;;;;;;;;;20.41;50.99;102065.28;5008986;28;4075;-61
2022/10/27 06:43:13;;;;;;;;;;;;;;;20.84;51.70;102067.31;5009693;28;4852;-63
2022/10/27 06:45:44;;;;;;;;;;;;;;;21.45;51.19;102058.84;5009643;28;2983;-62
2022/10/27 06:48:11;;;;;;;;;;;;;;;21.63;51.63;102054.19;5010944;28;4689;-61
2022/10/27 06:50:37;;;;;;;;;;;;;;;21.73;51.24;102060.56;5016629;28;2961;-64
2022/10/27 06:53:03;;;;;;;;;;;;;;;21.18;53.71;102054.31;5015067;28;2816;-64
2022/10/27 06:55:30;;;;;;;;;;;;;;;21.16;53.34;102059.94;5011979;28;5098;-62
2022/10/27 06:57:56;;;;;;;;;;;;;;;21.40;54.00;102057.09;5003947;28;4993;-66
2022/10/27 07:00:23;;;;;;;;;;;;;;;21.48;54.32;102063.34;5006142;28;3087;-63
2022/10/27 07:02:49;;;;;;;;;;;;;;;21.41;55.30;102061.47;5020439;28;3629;-62
2022/10/27 07:05:16;;;;;;;;;;;;;;;21.48;54.89;102074.88;5014468;28;2797;-62
2022/10/27 07:07:46;;;;;;;;;;;;;;;21.43;55.61;102078.91;5014317;28;3131;-61
2022/10/27 07:10:12;;;;;;;;;;;;;;;21.33;56.66;102081.88;5015990;28;5185;-62
2022/10/27 07:12:39;;;;;;;;;;;;;;;21.33;56.90;102076.88;5017744;28;2935;-61
2022/10/27 07:15:05;;;;;;;;;;;;;;;21.40;57.01;102078.03;5015879;28;2938;-60
2022/10/27 07:17:31;;;;;;;;;;;;;;;21.60;56.23;102081.41;5015480;28;4903;-60
2022/10/27 07:19:58;;;;;;;;;;;;;;;21.70;56.62;102073.38;5018096;28;3072;-63
2022/10/27 07:22:24;;;;;;;;;;;;;;;21.74;56.27;102088.03;5016588;28;2865;-62
2022/10/27 07:24:50;;;;;;;;;;;;;;;20.66;55.15;102089.91;5007318;28;5771;-64
2022/10/27 07:27:17;;;;;;;;;;;;;;;20.78;55.24;102093.59;5013620;28;3528;-63
2022/10/27 07:29:43;;;;;;;;;;;;;;;20.96;56.61;102096.13;5016065;28;3141;-65
2022/10/27 07:32:09;;;;;;;;;;;;;;;21.03;58.51;102100.91;5012412;28;3249;-65
2022/10/27 07:34:36;;;;;;;;;;;;;;;21.07;58.48;102101.91;5012217;28;6235;-64
2022/10/27 07:37:02;;;;;;;;;;;;;;;21.08;58.79;102102.66;5008022;28;2501;-64
2022/10/27 07:39:28;;;;;;;;;;;;;;;21.08;58.94;102108.41;5016008;28;3544;-64
2022/10/27 07:41:55;;;;;;;;;;;;;;;21.09;59.34;102104.16;5013192;28;5889;-65
2022/10/27 07:44:21;;;;;;;;;;;;;;;21.13;59.09;102110.19;5014843;28;3839;-65
2022/10/27 07:46:47;;;;;;;;;;;;;;;21.09;59.46;102110.66;5009454;28;3516;-64
2022/10/27 07:49:14;;;;;;;;;;;;;;;21.06;59.73;102114.06;5013508;28;5794;-65
2022/10/27 07:51:40;;;;;;;;;;;;;;;21.31;58.44;102110.56;5013450;28;5988;-65
2022/10/27 07:54:06;;;;;;;;;;;;;;;21.58;58.34;102123.75;5020148;28;3655;-65
2022/10/27 07:56:35;;;;;;;;;;;;;;;21.70;58.07;102110.09;5018878;28;5928;-66
2022/10/27 07:59:01;;;;;;;;;;;;;;;21.58;58.57;102123.75;5016897;28;5420;-68
2022/10/27 08:01:28;;;;;;;;;;;;;;;21.59;58.71;102120.25;5021324;28;2998;-66
2022/10/27 08:03:54;;;;;;;;;;;;;;;21.78;57.97;102118.47;5014153;28;3049;-66
2022/10/27 08:06:21;;;;;;;;;;;;;;;21.84;58.77;102121.72;5010025;28;5061;-67
2022/10/27 08:08:48;;;;;;;;;;;;;;;21.90;58.20;102122.09;5003824;28;4322;-67
2022/10/27 08:11:15;;;;;;;;;;;;;;;21.49;58.72;102119.63;5008778;28;2905;-66
2022/10/27 08:13:41;;;;;;;;;;;;;;;21.33;59.03;102122.97;5014551;28;3120;-64
2022/10/27 08:16:07;;;;;;;;;;;;;;;21.36;59.56;102120.97;5012862;28;3076;-62
2022/10/27 08:18:34;;;;;;;;;;;;;;;21.43;59.86;102125.00;5011699;28;3300;-66
2022/10/27 08:21:01;;;;;;;;;;;;;;;21.53;59.78;102125.63;5016314;28;3508;-61
2022/10/27 08:23:28;;;;;;;;;;;;;;;21.60;59.48;102127.53;5015206;28;2896;-64
2022/10/27 08:25:54;;;;;;;;;;;;;;;21.44;60.04;102129.38;5012258;28;3398;-65
2022/10/27 08:28:21;;;;;;;;;;;;;;;21.45;60.08;102134.53;5010867;28;3254;-64
2022/10/27 08:30:49;;;;;;;;;;;;;;;21.36;60.42;102137.50;5013547;28;3268;-62
2022/10/27 08:33:18;;;;;;;;;;;;;;;21.34;60.58;102141.00;5020991;28;3037;-63
2022/10/27 08:35:44;;;;;;;;;;;;;;;21.30;60.52;102134.97;5013670;28;3242;-62
2022/10/27 08:38:12;;;;;;;;;;;;;;;21.39;60.55;102145.66;5015404;28;3021;-64
2022/10/27 08:40:44;;;;;;;;;;;;;;;21.20;60.95;102143.75;5009584;28;2959;-64
2022/10/27 08:43:21;;;;;;;;;;;;;;;21.31;60.58;102143.00;5011464;28;2943;-65
2022/10/27 08:46:01;;;;;;;;;;;;;;;21.30;60.76;102153.03;5028504;28;2998;-66
2022/10/27 08:48:28;;;;;;;;;;;;;;;21.45;60.47;102148.19;5013334;28;3527;-62
2022/10/27 08:50:54;;;;;;;;;;;;;;;21.53;60.43;102151.56;5039784;28;3139;-63
2022/10/27 08:53:23;;;;;;;;;;;;;;;21.47;60.43;102151.94;5015275;28;2942;-63
2022/10/27 08:55:51;;;;;;;;;;;;;;;21.65;60.19;102149.44;5029191;28;3044;-67
2022/10/27 08:58:35;;;;;;;;;;;;;;;21.52;59.97;102145.06;5012904;28;2991;-68
2022/10/27 09:01:03;;;;;;;;;;;;;;;21.16;59.61;102155.00;5013658;28;3036;-67
2022/10/27 09:03:39;;;;;;;;;;;;;;;21.43;59.57;102160.34;5010580;28;3017;-62
2022/10/27 09:06:09;;;;;;;;;;;;;;;21.48;59.45;102159.22;5010818;28;3051;-66
2022/10/27 09:08:46;;;;;;;;;;;;;;;21.69;59.31;102146.81;5015072;28;2966;-61
2022/10/27 09:11:22;;;;;;;;;;;;;;;21.77;59.25;102146.56;5030052;28;2980;-62
2022/10/27 09:14:13;;;;;;;;;;;;;;;21.79;59.16;102143.06;5005036;28;3192;-60
2022/10/27 09:16:41;;;;;;;;;;;;;;;21.49;60.11;102139.81;5002951;28;5577;-61
2022/10/27 09:19:10;;;;;;;;;;;;;;;21.51;59.79;102143.56;5004859;28;3075;-63
2022/10/27 09:21:36;;;;;;;;;;;;;;;21.67;59.39;102143.81;5016770;28;3020;-61
2022/10/27 09:24:04;;;;;;;;;;;;;;;21.69;58.43;102135.28;5008347;28;3257;-62
2022/10/27 09:26:31;;;;;;;;;;;;;;;21.73;58.33;102138.41;5018653;28;2916;-60
2022/10/27 09:28:59;;;;;;;;;;;;;;;21.79;58.46;102135.16;5027213;28;3057;-66
2022/10/27 09:31:30;;;;;;;;;;;;;;;21.72;58.15;102139.78;5013123;28;3210;-59
2022/10/27 09:34:02;;;;;;;;;;;;;;;21.64;58.30;102133.53;5015047;28;3497;-60
2022/10/27 09:36:29;;;;;;;;;;;;;;;21.62;58.54;102127.63;5022546;28;2684;-63
2022/10/27 09:38:55;;;;;;;;;;;;;;;21.63;58.57;102137.06;5012473;28;2915;-61
2022/10/27 09:41:22;;;;;;;;;;;;;;;21.68;58.59;102139.53;5008204;28;2918;-61
2022/10/27 09:43:48;;;;;;;;;;;;;;;21.44;58.59;102138.81;4998372;28;5445;-62
2022/10/27 09:46:21;;;;;;;;;;;;;;;21.22;59.57;102141.00;5013657;28;5498;-60
2022/10/27 09:48:49;;;;;;;;;;;;;;;21.51;58.88;102137.06;5006671;28;5061;-61
2022/10/27 09:51:22;;;;;;;;;;;;;;;21.42;58.66;102129.28;4993820;28;3765;-56
2022/10/27 09:53:49;;;;;;;;;;;;;;;21.30;58.88;102135.75;5007848;28;3690;-58
2022/10/27 09:56:17;;;;;;;;;;;;;;;21.17;58.90;102145.00;5001034;28;2849;-63
2022/10/27 09:58:48;;;;;;;;;;;;;;;21.12;59.14;102137.50;5011818;28;3033;-63
2022/10/27 10:01:14;;;;;;;;;;;;;;;21.05;59.12;102142.09;5005531;28;2944;-63
2022/10/27 10:03:50;;;;;;;;;;;;;;;21.01;59.23;102141.09;5011434;28;3014;-61
2022/10/27 10:06:32;;;;;;;;;;;;;;;21.01;59.35;102143.97;5040059;28;2989;-62
2022/10/27 10:09:14;;;;;;;;;;;;;;;21.09;59.07;102138.72;5016012;28;3076;-62
2022/10/27 10:11:40;;;;;;;;;;;;;;;21.11;59.52;102141.72;5003097;28;3257;-61
2022/10/27 10:14:07;;;;;;;;;;;;;;;21.17;59.55;102144.25;5004066;28;2907;-61
2022/10/27 10:16:33;;;;;;;;;;;;;;;21.15;59.88;102149.88;5001515;28;3328;-61
2022/10/27 10:19:00;;;;;;;;;;;;;;;21.13;60.49;102141.88;5007878;28;3529;-66
2022/10/27 10:21:27;;;;;;;;;;;;;;;21.14;60.25;102146.22;5007744;28;3307;-63
2022/10/27 10:23:53;;;;;;;;;;;;;;;21.20;60.11;102138.00;5017877;28;2784;-65
2022/10/27 10:26:20;;;;;;;;;;;;;;;21.22;60.59;102135.25;5013131;28;2983;-64
2022/10/27 10:28:49;;;;;;;;;;;;;;;21.22;60.43;102140.25;5019923;28;3068;-65
2022/10/27 10:31:20;;;;;;;;;;;;;;;21.23;60.47;102142.50;5009612;28;4901;-62
2022/10/27 10:33:46;;;;;;;;;;;;;;;21.23;61.14;102145.38;5009149;28;4504;-64
2022/10/27 10:36:42;;;;;;;;;;;;;;;21.23;60.91;102142.50;5008511;28;4218;-62
2022/10/27 10:39:24;;;;;;;;;;;;;;;21.23;61.20;102133.09;4998573;28;4548;-66
2022/10/27 10:42:08;;;;;;;;;;;;;;;21.24;61.05;102134.63;5015002;28;4072;-62
2022/10/27 10:44:34;;;;;;;;;;;;;;;21.28;60.81;102140.63;5011657;28;3822;-65
2022/10/27 10:47:01;;;;;;;;;;;;;;;21.28;60.96;102138.50;5011109;28;3345;-60
2022/10/27 10:49:36;;;;;;;;;;;;;;;21.27;61.30;102139.88;5015114;28;3838;-59
2022/10/27 10:52:04;;;;;;;;;;;;;;;21.25;61.52;102136.84;5024631;28;4469;-63
2022/10/27 10:54:34;;;;;;;;;;;;;;;21.27;61.15;102130.47;5019785;28;3854;-61
2022/10/27 10:57:00;;;;;;;;;;;;;;;21.30;60.70;102134.97;5012563;28;4028;-64
2022/10/27 10:59:30;;;;;;;;;;;;;;;21.30;60.92;102135.75;5009965;28;3964;-63
2022/10/27 11:02:01;;;;;;;;;;;;;;;21.33;60.76;102134.50;5015539;28;3594;-64
2022/10/27 11:04:28;;;;;;;;;;;;;;;21.33;61.22;102122.22;5013432;28;3942;-56
2022/10/27 11:07:04;;;;;;;;;;;;;;;21.46;61.38;102135.28;5002986;28;3831;-69
2022/10/27 11:09:54;;;;;;;;;;;;;;;21.75;62.13;102129.13;5015611;28;5134;-71
2022/10/27 11:12:34;;;;;;;;;;;;;;;21.93;61.40;102118.69;5010362;28;3704;-71
2022/10/27 11:15:03;;;;;;;;;;;;;;;21.49;61.35;102117.50;5010807;28;3481;-68
2022/10/27 11:17:30;;;;;;;;;;;;;;;21.74;62.08;102119.00;5012870;28;3391;-72
2022/10/27 11:19:56;;;;;;;;;;;;;;;21.92;61.95;102111.44;5016272;28;3002;-71
2022/10/27 11:22:24;;;;;;;;;;;;;;;22.01;62.12;102112.66;5018072;28;3037;-69
2022/10/27 11:25:09;;;;;;;;;;;;;;;22.22;61.65;102108.13;5017134;28;3027;-69
2022/10/27 11:27:40;;;;;;;;;;;;;;;22.25;62.03;102107.63;5014231;28;2982;-71
2022/10/27 11:30:26;;;;;;;;;;;;;;;22.31;62.13;102115.84;5024718;28;3426;-69
2022/10/27 11:32:52;;;;;;;;;;;;;;;22.32;61.34;102112.34;5014483;28;3210;-67
2022/10/27 11:35:22;;;;;;;;;;;;;;;22.36;61.75;102106.06;5013655;28;3277;-69
2022/10/27 11:37:56;;;;;;;;;;;;;;;22.39;61.49;102104.78;5021914;28;3090;-69
2022/10/27 11:40:26;;;;;;;;;;;;;;;22.36;61.85;102101.06;5013626;28;2923;-67
2022/10/27 11:42:53;;;;;;;;;;;;;;;22.47;61.49;102096.63;5004958;28;3174;-67
2022/10/27 11:45:24;;;;;;;;;;;;;;;22.46;62.00;102103.00;5018649;28;3002;-66
2022/10/27 11:48:11;;;;;;;;;;;;;;;22.42;62.53;102094.88;5019589;28;2988;-71
2022/10/27 11:50:38;;;;;;;;;;;;;;;22.49;62.13;102096.72;5029124;28;2941;-65
2022/10/27 11:53:04;;;;;;;;;;;;;;;22.54;62.16;102092.69;5013803;28;3102;-66
2022/10/27 11:56:07;;;;;;;;;;;;;;;22.66;61.66;102091.88;5009317;28;3458;-73
2022/10/27 11:58:41;;;;;;;;;;;;;;;22.80;61.36;102095.56;5009157;28;2868;-72
2022/10/27 12:01:29;;;;;;;;;;;;;;;22.77;62.08;102097.59;5013653;28;3072;-75
2022/10/27 12:03:58;;;;;;;;;;;;;;;22.71;62.43;102088.56;5014498;28;2964;-65
2022/10/27 12:06:26;;;;;;;;;;;;;;;22.76;62.62;102089.56;5024369;28;3247;-64
2022/10/27 12:08:55;;;;;;;;;;;;;;;22.82;62.49;102084.13;5014915;28;3058;-65
2022/10/27 12:11:36;;;;;;;;;;;;;;;22.70;63.37;102084.19;5017774;28;2893;-65
2022/10/27 12:14:11;;;;;;;;;;;;;;;22.66;63.89;102091.88;5023373;28;4746;-65
2022/10/27 12:16:45;;;;;;;;;;;;;;;22.08;64.67;102084.94;5013508;28;3178;-64
2022/10/27 12:19:12;;;;;;;;;;;;;;;22.28;63.45;102082.50;5015898;28;3137;-66
2022/10/27 12:21:42;;;;;;;;;;;;;;;22.53;63.29;102073.84;5012525;28;4013;-70
2022/10/27 12:24:11;;;;;;;;;;;;;;;22.65;63.52;102073.03;5012882;28;4825;-64
2022/10/27 12:26:41;;;;;;;;;;;;;;;22.63;63.21;102058.50;5017170;28;3324;-62
2022/10/27 12:29:07;;;;;;;;;;;;;;;22.61;63.41;102067.03;5013029;28;3036;-63
2022/10/27 12:31:36;;;;;;;;;;;;;;;22.59;63.37;102065.53;5001006;28;3677;-63
2022/10/27 12:34:02;;;;;;;;;;;;;;;22.61;63.39;102064.16;5004506;28;4494;-63
2022/10/27 12:36:34;;;;;;;;;;;;;;;22.64;63.00;102060.00;5009759;28;3293;-62
2022/10/27 12:39:19;;;;;;;;;;;;;;;22.41;63.33;102055.84;5018222;28;2992;-62
2022/10/27 12:41:52;;;;;;;;;;;;;;;22.35;63.55;102062.00;5008671;28;2976;-62
2022/10/27 12:44:37;;;;;;;;;;;;;;;22.36;63.78;102054.13;5009356;28;3315;-61
2022/10/27 12:47:10;;;;;;;;;;;;;;;22.87;63.24;102059.84;5012468;28;3174;-61
2022/10/27 12:49:39;;;;;;;;;;;;;;;22.97;62.58;102056.75;5007444;28;3654;-62
2022/10/27 12:52:09;;;;;;;;;;;;;;;22.95;62.71;102054.53;5011392;28;2992;-61
2022/10/27 12:54:40;;;;;;;;;;;;;;;23.10;62.12;102046.66;5018940;28;3310;-63
2022/10/27 12:57:20;;;;;;;;;;;;;;;23.13;61.51;102048.25;5014746;28;2968;-64
2022/10/27 13:00:00;;;;;;;;;;;;;;;23.07;61.69;102042.16;5024635;28;2969;-63
2022/10/27 13:02:28;;;;;;;;;;;;;;;22.89;62.24;102039.00;5003698;28;3045;-65